To NAV CANADA Home Page Login to a new session Search on AWWS site Feedback and Comments Disclaimer Vers la page française équivalente Tips FAQ What's new on the site To the Forecasts and Observations / NOTAM section To "File a Flight Plan" website Publications and other links Update of the User's profile FIC Telephone Numbers My Weather Data Folder Route Weather Data Regional Weather Data Local Weather Data To the Forecasts and Observations / NOTAM section
Request Generated 08/22/2017 at 03:23:01 UTC . Weather information available at that time is displayed.

METAR/TAF

GRANDE PRAIRIE/AB    

METAR CYQU 220300Z 23009KT 25SM BKN060 19/10 A3003 RMK SC7 SLP181
DENSITY ALT 3100FT=
METAR CYQU 220200Z 24010KT 25SM OVC060 19/10 A3003 RMK SC8 SLP181
DENSITY ALT 3100FT=
METAR CYQU 220100Z 25012KT 25SM BKN068 OVC120 20/10 A3003 RMK AC7AC1
SLP183 DENSITY ALT 3200FT=

TAF CYQU 220038Z 2201/2213 25015KT P6SM BKN080 BKN120
FM220800 25008KT P6SM SCT080
RMK NXT FCST BY 220700Z=
Your time UTC time
Weather data provided by Environment Canada and NAV CANADA